Time;durP1;ratioP1;P1;durP2;ratioP2;P2;SDS_P1;SDS_P2;PMS_P1;PMS_P2;Temp;Humidity;BMP_temperature;BMP_pressure;BME280_temperature;BME280_humidity;BME280_pressure;Samples;Min_cycle;Max_cycle;Signal;HPM_P1;HPM_P2
2023/06/08 00:00:39;;;;;;;4.93;4.43;;;;;;;13.92;100.00;97764.78;6081236;29;20239;-46
2023/06/08 00:03:43;;;;;;;5.23;4.73;;;;;;;13.87;100.00;97762.06;6076424;29;20289;-49
2023/06/08 00:06:49;;;;;;;5.40;4.90;;;;;;;13.77;100.00;97767.38;6078563;29;20791;-44
2023/06/08 00:09:52;;;;;;;7.47;4.87;;;;;;;13.73;100.00;97765.47;6077293;29;20239;-45
2023/06/08 00:12:54;;;;;;;5.80;5.30;;;;;;;13.66;100.00;97763.84;6076375;29;20349;-45
2023/06/08 00:16:02;;;;;;;6.27;5.67;;;;;;;13.59;100.00;97760.56;6074679;29;20327;-45
2023/06/08 00:19:07;;;;;;;5.93;5.30;;;;;;;13.40;100.00;97752.19;6078743;29;20247;-45
2023/06/08 00:22:13;;;;;;;7.47;5.60;;;;;;;13.38;100.00;97761.53;6076036;29;20240;-45
2023/06/08 00:25:16;;;;;;;7.57;5.20;;;;;;;13.30;100.00;97759.31;6075971;29;20272;-45
2023/06/08 00:28:20;;;;;;;10.43;4.97;;;;;;;13.21;100.00;97755.50;6077686;29;20231;-45
2023/06/08 00:31:22;;;;;;;7.17;5.53;;;;;;;13.18;100.00;97749.59;6075702;29;20243;-47
2023/06/08 00:34:26;;;;;;;6.83;5.43;;;;;;;13.13;100.00;97760.25;6077202;29;20240;-44
2023/06/08 00:37:29;;;;;;;12.63;8.27;;;;;;;13.06;100.00;97757.00;6075214;29;20244;-45
2023/06/08 00:40:34;;;;;;;6.43;5.70;;;;;;;13.02;100.00;97755.88;6075041;29;20244;-45
2023/06/08 00:43:37;;;;;;;6.13;5.63;;;;;;;12.97;100.00;97752.38;6079626;29;20274;-45
2023/06/08 00:46:41;;;;;;;5.87;5.27;;;;;;;12.71;100.00;97716.56;6073410;29;20611;-45
2023/06/08 00:49:45;;;;;;;9.87;6.00;;;;;;;12.91;100.00;97748.84;6075495;29;20240;-45
2023/06/08 00:52:50;;;;;;;6.07;5.47;;;;;;;12.88;100.00;97750.16;6076250;29;20240;-44
2023/06/08 00:55:54;;;;;;;6.03;5.40;;;;;;;12.86;100.00;97748.81;6074924;29;20240;-45
2023/06/08 00:59:00;;;;;;;5.33;4.83;;;;;;;12.90;100.00;97748.03;6077464;29;20321;-45
2023/06/08 01:02:06;;;;;;;5.53;5.03;;;;;;;12.91;100.00;97748.84;6076945;29;20609;-45
2023/06/08 01:05:09;;;;;;;5.43;4.90;;;;;;;12.91;100.00;97740.84;6074202;29;20799;-45
2023/06/08 01:08:47;;;;;;;9.57;5.70;;;;;;;12.87;100.00;97737.06;6060388;29;20232;-45
2023/06/08 01:12:16;;;;;;;7.43;5.80;;;;;;;12.77;100.00;97731.63;6080895;29;20323;-45
2023/06/08 01:15:30;;;;;;;5.73;4.87;;;;;;;12.70;100.00;97731.00;6090763;29;20395;-45
2023/06/08 01:18:39;;;;;;;5.83;5.33;;;;;;;12.65;100.00;97742.47;6084202;29;20235;-45
2023/06/08 01:21:41;;;;;;;7.13;4.93;;;;;;;12.61;100.00;97738.66;6074857;29;20228;-45
2023/06/08 01:24:49;;;;;;;7.40;4.57;;;;;;;12.63;100.00;97737.38;6074629;29;20298;-45
2023/06/08 01:27:58;;;;;;;5.03;4.37;;;;;;;12.64;100.00;97738.97;6073322;29;20236;-47
2023/06/08 01:31:02;;;;;;;4.53;4.13;;;;;;;12.57;100.00;97718.88;6077362;29;20328;-45
2023/06/08 01:34:06;;;;;;;5.67;5.17;;;;;;;12.45;100.00;97707.53;6065975;29;20232;-46
2023/06/08 01:37:32;;;;;;;7.97;5.30;;;;;;;12.58;100.00;97736.53;6072658;29;20232;-44
2023/06/08 01:40:41;;;;;;;5.33;4.67;;;;;;;12.55;100.00;97734.34;6069368;29;20288;-45
2023/06/08 01:43:47;;;;;;;6.10;5.23;;;;;;;12.53;100.00;97739.97;6077186;29;20739;-45
2023/06/08 01:46:59;;;;;;;5.93;4.73;;;;;;;12.53;100.00;97739.16;6071575;29;20240;-45
2023/06/08 01:50:04;;;;;;;5.90;5.40;;;;;;;12.49;100.00;97735.38;6075121;29;20232;-45
2023/06/08 01:53:07;;;;;;;6.27;5.67;;;;;;;12.49;100.00;97724.69;6073706;29;20331;-45
2023/06/08 01:56:10;;;;;;;6.20;5.60;;;;;;;12.51;100.00;97730.56;6074366;29;20248;-49
2023/06/08 01:59:13;;;;;;;4.77;4.37;;;;;;;12.54;100.00;97728.19;6074529;29;20227;-45
2023/06/08 02:02:16;;;;;;;5.10;4.70;;;;;;;12.32;100.00;97704.22;6088649;29;20232;-47
2023/06/08 02:05:18;;;;;;;4.90;4.50;;;;;;;12.55;100.00;97723.66;6076092;29;20318;-45
2023/06/08 02:08:21;;;;;;;6.60;5.17;;;;;;;12.55;100.00;97729.81;6075402;29;20252;-48
2023/06/08 02:11:23;;;;;;;5.77;5.17;;;;;;;12.48;100.00;97731.88;6078332;29;20239;-49
2023/06/08 02:14:26;;;;;;;5.43;5.03;;;;;;;12.47;100.00;97724.94;6076697;29;20235;-44
2023/06/08 02:17:33;;;;;;;4.90;4.40;;;;;;;12.46;100.00;97722.50;6073513;29;20244;-45
2023/06/08 02:20:36;;;;;;;4.70;4.30;;;;;;;12.46;100.00;97728.66;6073111;29;20248;-48
2023/06/08 02:23:39;;;;;;;5.63;4.50;;;;;;;12.46;100.00;97725.97;6075861;29;20243;-45
2023/06/08 02:26:42;;;;;;;6.10;5.50;;;;;;;12.34;100.00;97714.66;6072951;29;20232;-46
2023/06/08 02:29:45;;;;;;;6.27;4.70;;;;;;;12.38;100.00;97731.78;6067717;29;20238;-46
2023/06/08 02:32:47;;;;;;;5.00;4.60;;;;;;;12.33;100.00;97731.75;6073385;29;20267;-48
2023/06/08 02:35:49;;;;;;;5.33;4.83;;;;;;;12.17;100.00;97719.25;6072053;29;20723;-47
2023/06/08 02:38:52;;;;;;;9.10;5.30;;;;;;;12.19;100.00;97730.50;6075804;29;20223;-45
2023/06/08 02:41:54;;;;;;;8.10;5.20;;;;;;;12.15;100.00;97727.53;6075904;29;20310;-47
2023/06/08 02:44:57;;;;;;;6.17;5.40;;;;;;;12.14;100.00;97731.25;6072697;29;20231;-46
2023/06/08 02:48:01;;;;;;;7.03;5.13;;;;;;;12.11;100.00;97729.88;6073085;29;20704;-45
2023/06/08 02:51:05;;;;;;;5.53;5.03;;;;;;;12.11;100.00;97729.09;6057482;29;20373;-45
2023/06/08 02:54:08;;;;;;;5.10;4.70;;;;;;;12.11;100.00;97729.09;6074082;29;20956;-45
2023/06/08 02:57:10;;;;;;;5.83;4.90;;;;;;;12.04;100.00;97736.50;6089023;29;20804;-44
2023/06/08 03:00:21;;;;;;;5.90;5.00;;;;;;;12.00;100.00;97730.03;6070286;29;20307;-45
2023/06/08 03:03:43;;;;;;;9.30;5.50;;;;;;;11.94;100.00;97715.03;6085782;29;20233;-45
2023/06/08 03:06:53;;;;;;;5.90;5.30;;;;;;;11.74;100.00;97694.19;6083174;29;20598;-47
2023/06/08 03:09:57;;;;;;;6.13;5.10;;;;;;;11.89;100.00;97723.78;6080360;29;20286;-46
2023/06/08 03:13:01;;;;;;;5.00;4.60;;;;;;;11.65;100.00;97691.16;6075701;29;20247;-45
2023/06/08 03:16:06;;;;;;;4.90;4.40;;;;;;;11.77;100.00;97697.19;6073121;29;20752;-46
2023/06/08 03:19:09;;;;;;;5.23;4.70;;;;;;;11.92;100.00;97725.97;6072790;29;20300;-45
2023/06/08 03:22:12;;;;;;;5.90;5.40;;;;;;;11.90;100.00;97713.91;6073130;29;20234;-47
2023/06/08 03:25:28;;;;;;;6.83;4.40;;;;;;;11.79;100.00;97704.94;6074456;29;20267;-46
2023/06/08 03:28:31;;;;;;;5.50;5.00;;;;;;;11.91;100.00;97726.97;6073508;29;20236;-46
2023/06/08 03:31:37;;;;;;;4.47;4.10;;;;;;;11.91;100.00;97724.31;6087044;29;20232;-44
2023/06/08 03:34:48;;;;;;;5.30;4.80;;;;;;;11.92;100.00;97725.97;6071950;29;20291;-46
2023/06/08 03:37:51;;;;;;;7.87;5.50;;;;;;;11.94;100.00;97720.34;6074999;29;20244;-44
2023/06/08 03:40:54;;;;;;;6.63;6.10;;;;;;;11.95;100.00;97728.09;6076678;29;20238;-46
2023/06/08 03:43:58;;;;;;;11.30;6.33;;;;;;;11.85;100.00;97717.31;6071313;29;20248;-46
2023/06/08 03:47:04;;;;;;;7.13;5.90;;;;;;;11.91;100.00;97726.97;6076526;29;20243;-45
2023/06/08 03:50:11;;;;;;;8.30;5.97;;;;;;;11.90;100.00;97730.72;6093002;29;20236;-48
2023/06/08 03:53:14;;;;;;;8.43;6.30;;;;;;;11.92;100.00;97736.63;6078993;29;20231;-45
2023/06/08 03:56:17;;;;;;;11.13;6.93;;;;;;;11.97;100.00;97730.53;6076777;29;20602;-47
2023/06/08 03:59:19;;;;;;;7.67;6.03;;;;;;;12.00;100.00;97727.38;6074516;29;20239;-45
2023/06/08 04:02:23;;;;;;;7.30;6.70;;;;;;;11.98;100.00;97716.13;6086538;29;20707;-45
2023/06/08 04:05:25;;;;;;;6.70;6.00;;;;;;;12.06;100.00;97727.16;6078958;29;20240;-45
2023/06/08 04:08:31;;;;;;;6.50;5.90;;;;;;;12.06;100.00;97727.16;6079240;29;20314;-45
2023/06/08 04:11:34;;;;;;;7.57;5.97;;;;;;;12.13;100.00;97725.13;6073970;29;20615;-44
2023/06/08 04:14:37;;;;;;;6.30;5.80;;;;;;;12.17;100.00;97729.94;6078573;29;20235;-45
2023/06/08 04:17:41;;;;;;;6.83;5.57;;;;;;;12.19;100.00;97725.97;6078690;29;20322;-46
2023/06/08 04:20:46;;;;;;;6.03;5.53;;;;;;;12.26;100.00;97723.09;6092841;29;20747;-44
2023/06/08 04:23:48;;;;;;;6.13;5.43;;;;;;;12.25;100.00;97716.94;6075849;29;20239;-45
2023/06/08 04:26:57;;;;;;;8.17;6.43;;;;;;;12.31;100.00;97715.13;6088448;29;20239;-45
2023/06/08 04:30:02;;;;;;;6.00;5.40;;;;;;;12.33;100.00;97721.06;6084477;29;20235;-44
2023/06/08 04:33:07;;;;;;;6.20;5.70;;;;;;;12.41;100.00;97725.94;6076339;29;20238;-46
2023/06/08 04:36:10;;;;;;;6.77;6.17;;;;;;;12.46;100.00;97722.50;6075817;29;20571;-45
2023/06/08 04:39:14;;;;;;;6.30;5.70;;;;;;;12.48;100.00;97723.88;6092165;29;20291;-44
2023/06/08 04:42:19;;;;;;;9.50;5.40;;;;;;;12.56;100.00;97731.44;6094062;29;20222;-44
2023/06/08 04:45:23;;;;;;;6.70;6.10;;;;;;;12.60;100.00;97724.50;6074312;29;20243;-45
2023/06/08 04:48:28;;;;;;;6.53;5.93;;;;;;;12.46;100.00;97687.75;6077459;29;20248;-44
2023/06/08 04:51:31;;;;;;;6.07;5.57;;;;;;;12.74;100.00;97727.56;6075913;29;20287;-45
2023/06/08 04:54:33;;;;;;;6.27;5.70;;;;;;;12.80;100.00;97729.22;6076504;29;20280;-44
2023/06/08 04:57:35;;;;;;;6.17;5.67;;;;;;;12.87;100.00;97735.19;6076809;29;20358;-45
2023/06/08 05:00:38;;;;;;;8.30;6.13;;;;;;;12.95;100.00;97730.41;6078601;29;20250;-44
2023/06/08 05:03:44;;;;;;;7.03;6.43;;;;;;;13.02;100.00;97736.38;6089705;29;20250;-45
2023/06/08 05:06:47;;;;;;;6.10;5.50;;;;;;;13.08;100.00;97732.66;6076338;29;20227;-44
2023/06/08 05:09:50;;;;;;;5.70;5.30;;;;;;;13.13;100.00;97741.53;6074314;29;20245;-44
2023/06/08 05:12:55;;;;;;;5.83;5.33;;;;;;;13.20;100.00;97735.97;6073907;29;20239;-44
2023/06/08 05:15:58;;;;;;;5.70;5.30;;;;;;;13.28;100.00;97737.38;6077772;29;20601;-45
2023/06/08 05:19:01;;;;;;;5.70;5.20;;;;;;;13.36;100.00;97742.25;6074870;29;20276;-45
2023/06/08 05:22:04;;;;;;;5.20;4.80;;;;;;;13.43;100.00;97737.47;6075325;29;20726;-44
2023/06/08 05:25:07;;;;;;;5.17;4.77;;;;;;;13.53;100.00;97734.84;6073131;29;20243;-45
2023/06/08 05:28:09;;;;;;;7.10;6.50;;;;;;;13.57;100.00;97727.13;6075829;29;20331;-44
2023/06/08 05:31:12;;;;;;;8.40;5.73;;;;;;;13.74;100.00;97722.38;6074692;29;20284;-44
2023/06/08 05:34:14;;;;;;;7.47;6.83;;;;;;;13.65;100.00;97703.34;6073358;29;20663;-45
2023/06/08 05:37:17;;;;;;;6.03;5.53;;;;;;;13.86;100.00;97719.50;6073700;29;20240;-45
2023/06/08 05:40:20;;;;;;;6.43;5.97;;;;;;;14.07;100.00;97737.25;6074079;29;20276;-45
2023/06/08 05:43:22;;;;;;;6.70;6.10;;;;;;;14.24;100.00;97744.28;6081909;29;20249;-44
2023/06/08 05:46:24;;;;;;;6.90;6.30;;;;;;;14.36;100.00;97751.00;6077209;29;20746;-45
2023/06/08 05:49:27;;;;;;;6.50;5.90;;;;;;;14.47;100.00;97751.81;6075465;29;20780;-44
2023/06/08 05:52:30;;;;;;;6.50;6.00;;;;;;;14.59;100.00;97747.06;6076377;29;20322;-45
2023/06/08 05:55:32;;;;;;;8.47;7.53;;;;;;;14.68;100.00;97742.78;6096715;29;20645;-46
2023/06/08 05:58:35;;;;;;;7.50;6.90;;;;;;;14.77;100.00;97745.72;6075043;29;20240;-45
2023/06/08 06:01:50;;;;;;;8.10;7.40;;;;;;;14.87;100.00;97743.06;6072995;29;20380;-46
2023/06/08 06:04:52;;;;;;;9.30;7.20;;;;;;;14.91;100.00;97740.66;6075903;29;20380;-44
2023/06/08 06:07:55;;;;;;;7.30;6.70;;;;;;;15.04;100.00;97748.16;6072166;29;20263;-45
2023/06/08 06:10:57;;;;;;;8.80;7.60;;;;;;;15.14;100.00;97744.69;6076467;29;20255;-45
2023/06/08 06:14:00;;;;;;;8.53;7.83;;;;;;;15.23;100.00;97741.19;6073430;29;20232;-44
2023/06/08 06:17:02;;;;;;;8.67;7.00;;;;;;;15.10;100.00;97706.03;6074922;29;20334;-45
2023/06/08 06:20:09;;;;;;;8.23;7.53;;;;;;;15.45;100.00;97754.28;6075067;29;20243;-46
2023/06/08 06:23:11;;;;;;;7.73;6.93;;;;;;;15.53;100.00;97744.09;6074332;29;20307;-45
2023/06/08 06:26:14;;;;;;;7.80;7.10;;;;;;;15.57;100.00;97754.03;6077972;29;20232;-45
2023/06/08 06:29:17;;;;;;;7.63;6.97;;;;;;;15.64;100.00;97756.44;6072254;29;20239;-45
2023/06/08 06:32:20;;;;;;;6.87;6.37;;;;;;;15.70;100.00;97756.16;6073289;29;20777;-46
2023/06/08 06:35:23;;;;;;;6.63;6.03;;;;;;;15.69;100.00;97748.38;6074812;29;20534;-45
2023/06/08 06:38:26;;;;;;;6.90;6.30;;;;;;;15.80;100.00;97755.31;6074737;29;20243;-46
2023/06/08 06:41:28;;;;;;;6.83;6.27;;;;;;;15.84;100.00;97753.69;6080918;29;20303;-45
2023/06/08 06:44:30;;;;;;;6.83;6.33;;;;;;;15.89;100.00;97752.88;6075313;29;20243;-45
2023/06/08 06:47:33;;;;;;;6.47;5.87;;;;;;;15.94;100.00;97750.97;6076821;29;20771;-46
2023/06/08 06:50:36;;;;;;;8.03;6.80;;;;;;;15.82;100.00;97725.50;6072990;29;20236;-45
2023/06/08 06:53:38;;;;;;;7.60;7.00;;;;;;;16.07;100.00;97752.28;6075116;29;20250;-45
2023/06/08 06:56:40;;;;;;;7.20;6.60;;;;;;;16.18;100.00;97751.16;6071080;29;20613;-45
2023/06/08 06:59:43;;;;;;;7.80;7.03;;;;;;;16.28;100.00;97744.91;6057717;29;20235;-47
2023/06/08 07:02:45;;;;;;;8.53;7.20;;;;;;;16.36;100.00;97749.72;6072041;29;20240;-45
2023/06/08 07:05:49;;;;;;;6.63;6.03;;;;;;;16.48;100.00;97742.09;6074167;29;20238;-45
2023/06/08 07:08:51;;;;;;;7.20;6.60;;;;;;;16.59;100.00;97744.72;6071461;29;20242;-46
2023/06/08 07:11:54;;;;;;;8.17;7.37;;;;;;;16.70;100.00;97748.97;6090836;29;20240;-46
2023/06/08 07:15:17;;;;;;;6.77;6.20;;;;;;;16.79;100.00;97741.13;6073935;29;20804;-55
2023/06/08 07:18:19;;;;;;;8.23;7.53;;;;;;;16.89;100.00;97732.97;6075005;29;20323;-46
2023/06/08 07:21:23;;;;;;;7.37;6.67;;;;;;;16.98;99.93;97742.06;6087436;29;20608;-47
2023/06/08 07:24:30;;;;;;;8.63;7.83;;;;;;;17.13;99.48;97733.06;6077401;29;20707;-45
2023/06/08 07:27:52;;;;;;;8.47;7.77;;;;;;;17.25;96.37;97733.50;6076681;29;20349;-45
2023/06/08 07:30:55;;;;;;;8.77;8.00;;;;;;;17.34;95.19;97717.50;6092715;29;20240;-45
2023/06/08 07:33:57;;;;;;;9.77;8.77;;;;;;;17.53;92.46;97731.84;6078389;29;20238;-47
2023/06/08 07:37:01;;;;;;;7.90;7.20;;;;;;;17.53;92.25;97702.22;6078393;29;20240;-46
2023/06/08 07:40:11;;;;;;;9.43;8.13;;;;;;;17.76;89.63;97712.25;6076635;29;20236;-47
2023/06/08 07:43:13;;;;;;;7.80;7.10;;;;;;;18.02;89.06;97726.22;6084531;28;20331;-48
2023/06/08 07:46:15;;;;;;;9.20;8.30;;;;;;;18.14;87.67;97730.41;6075806;29;20236;-44
2023/06/08 07:49:18;;;;;;;8.23;7.43;;;;;;;18.26;85.94;97728.06;6080470;29;20709;-45
2023/06/08 07:52:21;;;;;;;6.57;6.00;;;;;;;18.50;87.00;97728.00;6080465;29;20236;-48
2023/06/08 07:55:24;;;;;;;9.00;7.47;;;;;;;18.60;87.55;97724.38;6075570;29;20240;-45
2023/06/08 07:58:26;;;;;;;8.50;7.70;;;;;;;18.61;85.99;97720.56;6078240;29;20245;-48
2023/06/08 08:01:29;;;;;;;7.73;7.03;;;;;;;18.60;85.36;97711.66;6075256;29;20318;-45
2023/06/08 08:04:31;;;;;;;7.07;6.47;;;;;;;18.78;86.52;97720.88;6077817;29;20247;-47
2023/06/08 08:07:34;;;;;;;8.00;7.10;;;;;;;18.77;84.18;97727.38;6078424;29;20239;-45
2023/06/08 08:10:37;;;;;;;7.50;6.43;;;;;;;18.75;80.03;97727.66;6075644;29;20242;-46
2023/06/08 08:13:40;;;;;;;8.27;7.47;;;;;;;18.78;79.97;97732.47;6074436;29;20252;-48
2023/06/08 08:16:42;;;;;;;7.23;6.63;;;;;;;18.54;80.00;97691.28;6080003;29;20917;-48
2023/06/08 08:19:45;;;;;;;7.73;6.83;;;;;;;18.79;79.66;97733.28;6079259;29;20264;-45
2023/06/08 08:22:47;;;;;;;7.93;7.23;;;;;;;18.85;80.98;97734.00;6079501;29;20255;-45
2023/06/08 08:25:50;;;;;;;7.50;6.80;;;;;;;18.85;80.42;97715.09;6080020;29;20239;-49
2023/06/08 08:28:53;;;;;;;6.73;6.03;;;;;;;19.01;81.24;97735.34;6081646;29;20243;-46
2023/06/08 08:31:56;;;;;;;8.70;7.90;;;;;;;18.96;77.01;97735.44;6086431;29;20232;-47
2023/06/08 08:34:58;;;;;;;7.47;6.87;;;;;;;18.99;77.45;97730.25;6077005;29;20291;-48
2023/06/08 08:38:01;;;;;;;7.50;6.80;;;;;;;19.12;76.70;97726.00;6075359;29;20238;-45
2023/06/08 08:41:06;;;;;;;7.83;7.03;;;;;;;19.22;76.57;97733.94;6074515;29;20724;-45
2023/06/08 08:44:13;;;;;;;8.20;7.40;;;;;;;19.14;73.80;97731.91;6079628;29;20240;-46
2023/06/08 08:47:17;;;;;;;8.43;6.73;;;;;;;19.13;75.16;97727.59;6075249;29;20304;-46
2023/06/08 08:50:19;;;;;;;8.47;7.10;;;;;;;19.15;75.99;97730.81;6074633;29;20232;-45
2023/06/08 08:53:30;;;;;;;8.30;7.47;;;;;;;19.17;75.81;97731.31;6094142;29;20244;-44
2023/06/08 08:56:37;;;;;;;8.33;7.33;;;;;;;19.26;75.70;97732.25;6075694;29;20739;-46
2023/06/08 08:59:40;;;;;;;7.83;7.00;;;;;;;19.37;76.53;97726.66;6083658;29;20235;-45
2023/06/08 09:02:43;;;;;;;7.57;6.97;;;;;;;19.38;77.23;97725.56;6073474;29;20712;-44
2023/06/08 09:05:45;;;;;;;7.97;7.17;;;;;;;19.30;79.41;97724.34;6076500;29;20239;-46
2023/06/08 09:08:48;;;;;;;8.60;7.67;;;;;;;19.28;74.92;97729.25;6074319;29;20327;-45
2023/06/08 09:12:02;;;;;;;7.87;7.17;;;;;;;19.38;77.17;97728.25;6074344;29;20244;-45
2023/06/08 09:15:07;;;;;;;8.77;8.03;;;;;;;19.34;77.31;97734.25;6077435;29;20236;-44
2023/06/08 09:18:17;;;;;;;8.90;8.07;;;;;;;19.31;76.49;97726.75;6075302;29;20235;-45
2023/06/08 09:21:27;;;;;;;10.10;7.90;;;;;;;19.22;77.17;97728.53;6076259;29;20246;-46
2023/06/08 09:24:29;;;;;;;9.20;8.30;;;;;;;19.14;76.61;97720.31;6075062;29;20232;-45
2023/06/08 09:27:32;;;;;;;8.00;7.20;;;;;;;19.20;78.06;97724.50;6076374;29;20239;-46
2023/06/08 09:30:35;;;;;;;11.53;10.43;;;;;;;18.94;77.96;97689.03;6073818;29;20232;-46
2023/06/08 09:33:39;;;;;;;10.90;9.90;;;;;;;19.09;78.54;97713.09;6075456;29;20731;-46
2023/06/08 09:36:43;;;;;;;13.20;11.90;;;;;;;19.03;79.11;97715.06;6080335;29;20224;-45
2023/06/08 09:39:46;;;;;;;8.97;8.17;;;;;;;18.94;79.99;97710.66;6074091;29;20607;-46
2023/06/08 09:42:53;;;;;;;10.10;9.20;;;;;;;18.84;80.47;97706.22;6083289;29;20238;-45
2023/06/08 09:45:56;;;;;;;9.00;8.20;;;;;;;18.71;81.77;97710.44;6071999;29;20288;-46
2023/06/08 09:48:59;;;;;;;12.23;11.03;;;;;;;18.53;85.43;97706.66;6075807;29;20296;-46
2023/06/08 09:52:04;;;;;;;12.73;11.53;;;;;;;18.26;87.75;97707.28;6076680;29;20231;-47
2023/06/08 09:55:10;;;;;;;14.60;12.20;;;;;;;18.04;89.03;97715.94;6075847;29;20235;-46
2023/06/08 09:58:13;;;;;;;26.27;17.43;;;;;;;17.88;90.75;97721.81;6072398;29;20741;-48
2023/06/08 10:01:18;;;;;;;33.70;20.83;;;;;;;17.47;94.54;97700.69;6073112;29;20250;-45
2023/06/08 10:04:35;;;;;;;28.10;19.83;;;;;;;17.39;95.56;97730.94;6073044;29;20244;-46
2023/06/08 10:07:42;;;;;;;20.73;14.73;;;;;;;17.12;94.31;97739.53;6072965;29;20229;-46
2023/06/08 10:10:45;;;;;;;19.20;13.23;;;;;;;16.87;94.94;97729.78;6075613;29;20326;-46
2023/06/08 10:13:48;;;;;;;21.57;13.13;;;;;;;16.64;95.82;97725.88;6073266;29;20263;-46
2023/06/08 10:16:50;;;;;;;16.00;11.67;;;;;;;16.55;95.49;97730.22;6074415;29;20323;-46
2023/06/08 11:55:38;;;;;;;9.03;8.13;;;;;;;17.01;100.00;97648.13;6271686;28;1546703;-45
2023/06/08 11:58:41;;;;;;;10.50;9.43;;;;;;;17.23;100.00;97639.53;6302348;28;20288;-46
2023/06/08 12:01:59;;;;;;;9.50;8.60;;;;;;;17.16;100.00;97597.91;6266446;28;20354;-46
2023/06/08 12:05:01;;;;;;;10.13;8.90;;;;;;;17.34;100.00;97609.81;6236169;28;20240;-47
2023/06/08 12:08:14;;;;;;;10.10;9.13;;;;;;;17.61;100.00;97628.88;6235416;28;20704;-48
2023/06/08 12:11:17;;;;;;;11.37;10.27;;;;;;;17.62;100.00;97602.75;6234059;28;20232;-48
2023/06/08 12:14:22;;;;;;;10.77;9.67;;;;;;;17.87;100.00;97621.28;6233467;28;20262;-45
2023/06/08 12:17:26;;;;;;;13.17;11.33;;;;;;;17.95;100.00;97609.06;6260307;28;20235;-49
2023/06/08 12:20:36;;;;;;;13.27;11.97;;;;;;;18.13;100.00;97621.75;6257115;28;20230;-48
2023/06/08 12:23:38;;;;;;;15.10;13.60;;;;;;;18.25;100.00;97615.91;6255825;28;20329;-47
2023/06/08 12:26:40;;;;;;;14.47;13.13;;;;;;;18.34;100.00;97608.75;6260642;28;20394;-47
2023/06/08 12:29:46;;;;;;;14.63;13.23;;;;;;;18.44;100.00;97615.91;6259164;28;20231;-46
2023/06/08 12:32:48;;;;;;;15.50;13.43;;;;;;;18.46;100.00;97621.78;6260441;28;20239;-47
2023/06/08 12:35:51;;;;;;;15.40;13.90;;;;;;;18.45;100.00;97612.09;6258692;28;20233;-48
2023/06/08 12:38:56;;;;;;;14.90;13.37;;;;;;;18.43;100.00;97607.00;6246835;28;20235;-45
2023/06/08 12:41:59;;;;;;;13.00;11.73;;;;;;;18.51;100.00;97619.81;6241555;28;20240;-45
2023/06/08 12:45:02;;;;;;;12.53;11.23;;;;;;;18.44;100.00;97605.91;6192583;28;20298;-47
2023/06/08 12:48:05;;;;;;;13.57;12.37;;;;;;;18.59;100.00;97622.94;6194495;28;20251;-45
2023/06/08 12:51:07;;;;;;;12.90;11.63;;;;;;;18.56;99.81;97618.91;6190580;28;20231;-47
2023/06/08 12:54:09;;;;;;;11.73;10.63;;;;;;;18.55;99.96;97612.72;6194799;28;20221;-45
2023/06/08 12:57:11;;;;;;;12.10;11.03;;;;;;;18.56;99.71;97616.22;6183779;28;20316;-47
2023/06/08 13:00:14;;;;;;;11.77;10.70;;;;;;;18.59;100.00;97623.72;6171083;28;20255;-45
2023/06/08 13:03:17;;;;;;;14.03;12.73;;;;;;;18.59;99.24;97633.72;6190924;28;20299;-46
2023/06/08 13:06:19;;;;;;;12.87;11.67;;;;;;;18.56;99.54;97630.50;6194224;28;20335;-47
2023/06/08 13:09:21;;;;;;;14.37;13.03;;;;;;;18.55;99.17;97636.22;6193884;28;20701;-46
2023/06/08 13:12:25;;;;;;;14.07;12.67;;;;;;;18.53;99.02;97624.91;6175223;28;20233;-47
2023/06/08 13:15:28;;;;;;;13.10;11.80;;;;;;;18.55;99.50;97622.72;6193216;28;20231;-46
2023/06/08 13:18:32;;;;;;;13.50;12.27;;;;;;;18.54;99.33;97621.13;6195175;28;20237;-46
2023/06/08 13:21:34;;;;;;;14.63;13.20;;;;;;;18.54;99.05;97619.22;6185017;28;20236;-47
2023/06/08 13:24:36;;;;;;;13.50;12.33;;;;;;;18.57;99.49;97625.94;6194508;28;20238;-47
2023/06/08 13:27:39;;;;;;;12.53;11.43;;;;;;;18.55;99.52;97622.72;6192521;28;20232;-45
2023/06/08 13:30:41;;;;;;;12.07;11.07;;;;;;;18.63;99.92;97623.97;6188357;28;20303;-48
2023/06/08 13:33:43;;;;;;;12.47;11.27;;;;;;;18.65;99.54;97617.16;6193068;28;20359;-47
2023/06/08 13:36:46;;;;;;;12.90;11.60;;;;;;;18.68;99.19;97618.47;6158599;28;20260;-46
2023/06/08 13:39:48;;;;;;;13.23;12.03;;;;;;;18.69;99.26;97610.09;6194174;28;20233;-45
2023/06/08 13:42:53;;;;;;;11.60;10.50;;;;;;;18.72;99.73;97596.03;6193069;28;20236;-47
2023/06/08 13:45:58;;;;;;;12.47;11.37;;;;;;;18.78;99.13;97584.03;6186968;28;20248;-46
2023/06/08 13:49:01;;;;;;;13.00;11.80;;;;;;;18.88;99.50;97580.34;6189858;28;20237;-46
2023/06/08 13:52:03;;;;;;;11.63;10.53;;;;;;;18.91;99.28;97585.16;6191413;28;20248;-47
2023/06/08 13:55:06;;;;;;;12.40;11.30;;;;;;;18.94;99.13;97571.06;6194522;28;20324;-48
2023/06/08 13:58:08;;;;;;;12.93;11.83;;;;;;;19.03;99.47;97580.06;6211034;28;20682;-45
2023/06/08 14:01:10;;;;;;;10.47;9.53;;;;;;;18.92;98.39;97553.56;6217887;28;20246;-46
2023/06/08 14:04:13;;;;;;;10.53;9.43;;;;;;;19.16;98.23;97591.16;6217382;28;20231;-48
2023/06/08 14:07:15;;;;;;;10.57;9.67;;;;;;;19.17;97.83;97590.88;6216570;28;20255;-47
2023/06/08 14:10:17;;;;;;;11.53;9.37;;;;;;;19.19;97.44;97596.78;6217619;28;20234;-46
2023/06/08 14:13:20;;;;;;;10.57;9.57;;;;;;;19.15;96.94;97605.78;6216219;28;20228;-47
2023/06/08 14:16:25;;;;;;;9.33;8.57;;;;;;;19.17;97.37;97614.41;6221973;28;20697;-45
2023/06/08 14:19:27;;;;;;;9.67;8.87;;;;;;;19.14;97.11;97623.09;6212282;28;20242;-48
2023/06/08 14:22:30;;;;;;;9.20;8.40;;;;;;;19.10;96.98;97624.78;6214209;28;20233;-47
2023/06/08 14:25:32;;;;;;;10.43;9.43;;;;;;;18.80;96.86;97581.84;6213944;28;20601;-47
2023/06/08 14:28:35;;;;;;;10.27;9.47;;;;;;;18.96;97.14;97601.25;6216930;28;20242;-45
2023/06/08 14:31:37;;;;;;;9.63;8.87;;;;;;;19.01;96.77;97608.47;6216611;28;20764;-48
2023/06/08 14:34:40;;;;;;;9.43;8.63;;;;;;;18.97;96.14;97607.47;6216300;28;20235;-49
2023/06/08 14:37:42;;;;;;;9.43;8.60;;;;;;;18.98;95.91;97609.06;6216975;28;20304;-44
2023/06/08 14:40:44;;;;;;;9.77;8.93;;;;;;;18.95;95.71;97612.34;6212933;28;20216;-47
2023/06/08 14:43:50;;;;;;;11.97;9.93;;;;;;;18.98;96.01;97619.88;6216821;28;20716;-46
2023/06/08 14:46:53;;;;;;;10.43;9.53;;;;;;;19.01;95.64;97611.16;6215929;28;20236;-46
2023/06/08 14:49:55;;;;;;;10.23;9.23;;;;;;;18.84;95.77;97595.53;6215347;28;20418;-48
2023/06/08 14:52:57;;;;;;;9.47;8.63;;;;;;;18.79;90.85;97604.53;6189712;28;20236;-46
2023/06/08 14:56:00;;;;;;;8.37;7.57;;;;;;;18.68;88.70;97586.91;6184213;28;20336;-46
2023/06/08 14:59:02;;;;;;;7.70;7.00;;;;;;;18.67;89.30;97596.09;6167840;28;20256;-47
2023/06/08 15:02:05;;;;;;;7.80;7.03;;;;;;;18.63;88.94;97596.97;6166203;28;20234;-45
2023/06/08 15:05:08;;;;;;;5.83;5.33;;;;;;;18.37;89.02;97569.59;6168160;28;20261;-48
2023/06/08 15:08:10;;;;;;;5.83;5.23;;;;;;;18.52;89.65;97599.00;6167146;28;20244;-45
2023/06/08 15:11:16;;;;;;;6.37;5.77;;;;;;;18.30;90.05;97570.78;6165076;28;20241;-46
2023/06/08 15:14:18;;;;;;;6.07;4.13;;;;;;;18.35;86.36;97591.47;6167822;28;20315;-48
2023/06/08 15:17:20;;;;;;;5.13;4.63;;;;;;;18.30;87.74;97594.25;6167139;28;20248;-46
2023/06/08 15:20:23;;;;;;;4.97;4.53;;;;;;;18.25;88.72;97597.03;6166444;28;20256;-46
2023/06/08 15:23:25;;;;;;;4.27;3.97;;;;;;;18.13;89.21;97600.19;6164600;28;20379;-47
2023/06/08 15:26:27;;;;;;;5.67;4.10;;;;;;;17.83;90.62;97593.31;6165615;28;20240;-46
2023/06/08 15:29:30;;;;;;;5.13;4.40;;;;;;;17.73;91.02;97591.59;6167144;28;20237;-46
2023/06/08 15:32:35;;;;;;;4.70;4.30;;;;;;;17.70;91.85;97600.22;6165221;28;20319;-48
2023/06/08 15:35:38;;;;;;;4.53;3.70;;;;;;;17.65;92.17;97594.88;6168499;28;20666;-46
2023/06/08 15:38:40;;;;;;;4.70;4.30;;;;;;;17.61;92.29;97593.06;6165499;28;20229;-48
2023/06/08 15:41:43;;;;;;;5.33;4.63;;;;;;;17.56;93.10;97591.22;6165892;28;20611;-47
2023/06/08 15:44:45;;;;;;;5.00;4.60;;;;;;;17.54;92.92;97596.91;6165396;28;20241;-47
2023/06/08 15:47:47;;;;;;;5.33;4.43;;;;;;;17.51;93.01;97600.19;6172140;28;20320;-45
2023/06/08 15:50:54;;;;;;;4.90;4.50;;;;;;;17.47;93.71;97603.72;6147221;28;20233;-46